createdAt,value
2023-02-21T00:02:03.726Z,4.50
2023-02-21T00:04:49.532Z,4.00
2023-02-21T00:07:35.273Z,3.63
2023-02-21T00:10:21.227Z,3.50
2023-02-21T00:13:06.863Z,4.00
2023-02-21T00:15:54.212Z,4.27
2023-02-21T00:18:40.267Z,3.70
2023-02-21T00:21:25.847Z,3.73
2023-02-21T00:24:11.723Z,4.23
2023-02-21T00:26:57.427Z,5.23
2023-02-21T00:29:43.608Z,4.03
2023-02-21T00:32:30.671Z,3.70
2023-02-21T00:35:16.933Z,4.07
2023-02-21T00:38:02.883Z,4.53
2023-02-21T00:40:49.251Z,4.30
2023-02-21T00:43:36.783Z,4.40
2023-02-21T00:46:23.319Z,5.47
2023-02-21T00:49:10.478Z,5.03
2023-02-21T00:51:56.239Z,4.80
2023-02-21T00:54:42.009Z,4.30
2023-02-21T00:57:27.634Z,4.83
2023-02-21T01:00:13.552Z,5.33
2023-02-21T01:03:00.354Z,4.83
2023-02-21T01:05:47.522Z,5.23
2023-02-21T01:08:33.960Z,5.17
2023-02-21T01:11:19.757Z,5.00
2023-02-21T01:14:05.583Z,6.10
2023-02-21T01:16:54.125Z,5.20
2023-02-21T01:19:44.921Z,6.10
2023-02-21T01:22:32.035Z,6.00
2023-02-21T01:25:17.798Z,5.63
2023-02-21T01:28:03.383Z,5.23
2023-02-21T01:30:49.220Z,5.03
2023-02-21T01:33:35.077Z,4.47
2023-02-21T01:36:25.289Z,4.27
2023-02-21T01:39:12.346Z,4.00
2023-02-21T01:41:58.319Z,4.47
2023-02-21T01:44:56.300Z,3.93
2023-02-21T01:47:43.954Z,4.10
2023-02-21T01:50:39.789Z,3.50
2023-02-21T01:53:31.535Z,3.43
2023-02-21T01:56:20.181Z,3.33
2023-02-21T01:59:10.516Z,3.90
2023-02-21T02:02:05.527Z,3.60
2023-02-21T02:04:52.821Z,3.97
2023-02-21T02:07:39.280Z,3.80
2023-02-21T02:10:27.428Z,3.90
2023-02-21T02:13:24.333Z,4.00
2023-02-21T02:16:03.805Z,4.20
2023-02-21T02:19:17.869Z,4.73
2023-02-21T02:22:32.517Z,4.93
2023-02-21T02:25:24.929Z,4.13
2023-02-21T02:28:18.580Z,4.60
2023-02-21T02:31:21.024Z,5.57
2023-02-21T02:34:46.519Z,4.40
2023-02-21T02:37:24.655Z,4.83
2023-02-21T02:40:04.508Z,4.70
2023-02-21T02:42:51.789Z,5.03
2023-02-21T02:45:31.021Z,5.07
2023-02-21T02:48:10.001Z,4.50
2023-02-21T02:50:42.143Z,4.70
2023-02-21T02:53:10.484Z,4.53
2023-02-21T02:55:47.054Z,3.93
2023-02-21T02:58:17.249Z,4.27
2023-02-21T03:00:58.461Z,3.37
2023-02-21T03:04:03.959Z,3.47
2023-02-21T03:06:41.916Z,3.83
2023-02-21T03:09:19.101Z,4.10
2023-02-21T03:12:04.359Z,3.70
2023-02-21T03:14:42.034Z,3.70
2023-02-21T03:17:14.904Z,3.70
2023-02-21T03:19:48.274Z,3.53
2023-02-21T03:22:22.434Z,3.57
2023-02-21T03:24:53.179Z,3.77
2023-02-21T03:27:24.141Z,3.33
2023-02-21T03:30:11.662Z,3.93
2023-02-21T03:32:46.475Z,3.90
2023-02-21T03:35:15.618Z,3.57
2023-02-21T03:37:48.264Z,3.13
2023-02-21T03:40:20.653Z,3.20
2023-02-21T03:42:51.722Z,3.33
2023-02-21T03:45:21.844Z,3.03
2023-02-21T03:48:04.011Z,3.43
2023-02-21T03:50:34.097Z,3.50
2023-02-21T03:53:04.561Z,3.40
2023-02-21T03:55:34.054Z,3.23
2023-02-21T03:58:06.276Z,3.57
2023-02-21T04:00:36.873Z,3.80
2023-02-21T04:03:05.093Z,3.10
2023-02-21T04:05:41.916Z,2.70
2023-02-21T04:08:12.773Z,3.53
2023-02-21T04:10:51.677Z,2.97
2023-02-21T04:13:24.446Z,3.70
2023-02-21T04:15:53.302Z,4.10
2023-02-21T04:18:22.721Z,4.57
2023-02-21T04:20:52.700Z,5.33
2023-02-21T04:23:23.527Z,4.33
2023-02-21T04:25:51.964Z,4.57
2023-02-21T04:28:27.876Z,3.93
2023-02-21T04:30:56.009Z,4.10
2023-02-21T04:33:24.152Z,3.70
2023-02-21T04:35:52.374Z,3.13
2023-02-21T04:38:26.989Z,2.87
2023-02-21T04:40:55.228Z,3.23
2023-02-21T04:43:23.381Z,2.73
2023-02-21T04:45:51.635Z,3.63
2023-02-21T04:48:20.619Z,3.33
2023-02-21T04:50:48.832Z,3.40
2023-02-21T04:53:17.062Z,3.40
2023-02-21T04:55:46.616Z,3.90
2023-02-21T04:58:14.722Z,4.20
2023-02-21T05:00:42.928Z,3.97
2023-02-21T05:03:11.090Z,4.57
2023-02-21T05:05:39.239Z,4.30
2023-02-21T05:08:07.400Z,3.57
2023-02-21T05:10:45.171Z,3.80
2023-02-21T05:13:15.559Z,4.67
2023-02-21T05:15:43.892Z,3.80
2023-02-21T05:18:12.007Z,3.67
2023-02-21T05:20:40.265Z,4.07
2023-02-21T05:23:13.890Z,4.37
2023-02-21T05:25:42.396Z,3.03
2023-02-21T05:28:10.710Z,4.00
2023-02-21T05:30:40.299Z,3.60
2023-02-21T05:33:08.462Z,4.10
2023-02-21T05:35:36.594Z,3.77
2023-02-21T05:38:04.809Z,2.90
2023-02-21T05:40:33.002Z,3.33
2023-02-21T05:43:01.134Z,3.50
2023-02-21T05:45:29.286Z,4.00
2023-02-21T05:48:00.619Z,3.93
2023-02-21T05:50:28.888Z,3.90
2023-02-21T05:52:57.300Z,4.00
2023-02-21T05:55:25.548Z,4.17
2023-02-21T05:57:53.784Z,4.13
2023-02-21T06:00:24.946Z,3.47
2023-02-21T06:02:53.790Z,3.03
2023-02-21T06:05:24.479Z,3.53
2023-02-21T06:07:52.730Z,3.80
2023-02-21T06:10:21.408Z,3.97
2023-02-21T06:12:49.523Z,3.93
2023-02-21T06:15:17.828Z,3.60
2023-02-21T06:17:46.433Z,3.70
2023-02-21T06:20:16.694Z,3.97
2023-02-21T06:22:47.356Z,3.93
2023-02-21T06:25:15.501Z,4.00
2023-02-21T06:27:44.321Z,3.63
2023-02-21T06:30:14.207Z,4.40
2023-02-21T06:32:43.782Z,3.57
2023-02-21T06:35:13.363Z,3.80
2023-02-21T06:37:41.528Z,3.57
2023-02-21T06:40:12.218Z,3.90
2023-02-21T06:42:40.362Z,4.10
2023-02-21T06:45:09.441Z,3.80
2023-02-21T06:47:37.582Z,3.83
2023-02-21T06:50:09.849Z,4.43
2023-02-21T06:52:38.272Z,4.90
2023-02-21T06:55:08.089Z,6.07
2023-02-21T06:57:37.558Z,4.57
2023-02-21T07:00:07.472Z,3.93
2023-02-21T07:02:35.778Z,4.00
2023-02-21T07:05:03.956Z,4.47
2023-02-21T07:07:32.041Z,4.00
2023-02-21T07:10:00.305Z,4.37
2023-02-21T07:12:28.627Z,4.30
2023-02-21T07:14:58.115Z,4.00
2023-02-21T07:17:26.201Z,4.40
2023-02-21T07:19:54.321Z,4.80
2023-02-21T07:22:25.975Z,4.23
2023-02-21T07:24:54.512Z,4.60
2023-02-21T07:27:23.601Z,5.00
2023-02-21T07:29:52.362Z,5.50
2023-02-21T07:32:22.453Z,5.17
2023-02-21T07:34:50.783Z,5.30
2023-02-21T07:37:18.936Z,5.20
2023-02-21T07:39:47.045Z,5.27
2023-02-21T07:42:15.175Z,4.60
2023-02-21T07:44:47.813Z,5.87
2023-02-21T07:47:16.015Z,6.13
2023-02-21T07:49:45.482Z,5.27
2023-02-21T07:52:13.653Z,5.73
2023-02-21T07:54:41.772Z,5.77
2023-02-21T07:57:09.838Z,5.73
2023-02-21T07:59:38.112Z,6.70
2023-02-21T08:02:06.387Z,5.07
2023-02-21T08:04:34.511Z,5.73
2023-02-21T08:07:05.695Z,5.13
2023-02-21T08:09:34.858Z,6.17
2023-02-21T08:12:03.195Z,5.67
2023-02-21T08:14:31.368Z,5.20
2023-02-21T08:16:59.470Z,6.47
2023-02-21T08:19:27.683Z,6.00
2023-02-21T08:21:55.957Z,6.57
2023-02-21T08:24:25.402Z,6.23
2023-02-21T08:26:55.321Z,6.73
2023-02-21T08:29:23.401Z,6.88
2023-02-21T08:31:51.619Z,5.67
2023-02-21T08:34:19.835Z,5.97
2023-02-21T08:36:48.020Z,6.40
2023-02-21T08:39:16.176Z,5.88
2023-02-21T08:41:48.407Z,5.18
2023-02-21T08:44:18.752Z,6.18
2023-02-21T08:46:48.968Z,5.18
2023-02-21T08:49:18.025Z,5.33
2023-02-21T08:51:46.131Z,6.70
2023-02-21T08:54:14.242Z,5.40
2023-02-21T08:56:42.542Z,5.27
2023-02-21T08:59:12.025Z,5.57
2023-02-21T09:01:40.325Z,5.93
2023-02-21T09:04:08.476Z,5.80
2023-02-21T09:06:36.544Z,5.43
2023-02-21T09:09:05.049Z,5.25
2023-02-21T09:11:33.171Z,5.88
2023-02-21T09:14:01.275Z,4.50
2023-02-21T09:16:30.757Z,4.50
2023-02-21T09:19:01.748Z,4.13
2023-02-21T09:21:30.057Z,3.97
2023-02-21T09:23:59.235Z,4.25
2023-02-21T09:26:31.806Z,4.45
2023-02-21T09:29:00.340Z,4.57
2023-02-21T09:31:29.951Z,4.32
2023-02-21T09:33:58.620Z,4.75
2023-02-21T09:36:26.787Z,4.15
2023-02-21T09:38:54.924Z,4.43
2023-02-21T09:41:23.144Z,4.03
2023-02-21T09:43:55.005Z,4.78
2023-02-21T09:46:35.818Z,4.80
2023-02-21T09:49:08.163Z,4.43
2023-02-21T09:51:41.607Z,4.03
2023-02-21T09:54:20.481Z,4.32
2023-02-21T09:56:48.641Z,4.47
2023-02-21T09:59:18.214Z,4.32
2023-02-21T10:02:14.033Z,4.57
2023-02-21T10:05:03.166Z,4.55
2023-02-21T10:07:44.144Z,3.78
2023-02-21T10:10:18.764Z,3.67
2023-02-21T10:12:55.174Z,2.83
2023-02-21T10:15:50.003Z,3.55
2023-02-21T10:18:32.879Z,3.47
2023-02-21T10:21:05.636Z,2.95
2023-02-21T10:23:39.833Z,2.72
2023-02-21T10:26:14.339Z,2.95
2023-02-21T10:28:42.750Z,2.42
2023-02-21T10:31:19.329Z,2.85
2023-02-21T10:33:49.112Z,3.40
2023-02-21T10:36:21.244Z,3.45
2023-02-21T10:38:59.226Z,3.90
2023-02-21T10:41:32.134Z,4.43
2023-02-21T10:44:10.015Z,3.20
2023-02-21T10:46:46.100Z,3.47
2023-02-21T10:49:38.138Z,2.97
2023-02-21T10:52:12.184Z,3.13
2023-02-21T10:54:41.293Z,3.08
2023-02-21T10:57:17.737Z,3.30
2023-02-21T10:59:50.803Z,3.05
2023-02-21T11:02:37.377Z,3.65
2023-02-21T11:05:15.359Z,2.92
2023-02-21T11:07:58.211Z,3.00
2023-02-21T11:10:31.568Z,2.90
2023-02-21T11:13:08.865Z,2.78
2023-02-21T11:15:39.092Z,3.17
2023-02-21T11:18:23.260Z,2.97
2023-02-21T11:20:54.973Z,2.55
2023-02-21T11:23:27.839Z,2.38
2023-02-21T11:26:07.587Z,2.90
2023-02-21T11:28:43.340Z,2.58
2023-02-21T11:31:22.691Z,2.30
2023-02-21T11:33:57.992Z,2.42
2023-02-21T11:36:32.267Z,2.35
2023-02-21T11:39:07.665Z,2.53
2023-02-21T11:41:48.415Z,2.60
2023-02-21T11:44:30.848Z,2.35
2023-02-21T11:47:18.441Z,2.10
2023-02-21T11:50:01.733Z,2.58
2023-02-21T11:52:39.747Z,2.10
2023-02-21T11:55:16.512Z,2.72
2023-02-21T11:57:58.964Z,2.60
2023-02-21T12:00:40.056Z,2.25
2023-02-21T12:03:41.300Z,2.53
2023-02-21T12:06:22.566Z,2.40
2023-02-21T12:08:59.246Z,2.75
2023-02-21T12:11:55.485Z,2.00
2023-02-21T12:14:45.371Z,2.28
2023-02-21T12:17:33.788Z,1.83
2023-02-21T12:20:23.588Z,1.90
2023-02-21T12:23:15.824Z,1.73
2023-02-21T12:26:08.667Z,1.92
2023-02-21T12:29:07.923Z,1.55
2023-02-21T13:01:48.185Z,0.98
2023-02-21T13:04:29.009Z,0.68
2023-02-21T13:07:11.162Z,0.50
2023-02-21T13:09:50.911Z,0.50
2023-02-21T13:12:24.369Z,0.40
2023-02-21T13:14:58.502Z,0.57
2023-02-21T13:17:28.863Z,0.40
2023-02-21T13:20:06.582Z,0.60
2023-02-21T13:23:51.750Z,2.42
2023-02-21T13:27:09.126Z,0.85
2023-02-21T13:29:44.624Z,1.70
2023-02-21T13:32:20.553Z,1.42
2023-02-21T13:35:02.956Z,1.95
2023-02-21T13:37:35.782Z,1.00
2023-02-21T13:40:21.345Z,0.98
2023-02-21T13:42:50.967Z,1.30
2023-02-21T13:45:26.200Z,0.80
2023-02-21T13:48:26.514Z,0.90
2023-02-21T13:50:59.047Z,1.00
2023-02-21T13:53:33.213Z,0.80
2023-02-21T13:56:41.403Z,0.57
2023-02-21T13:59:36.642Z,0.60
2023-02-21T14:02:32.779Z,0.65
2023-02-21T14:05:08.135Z,0.40
2023-02-21T14:07:59.876Z,0.20
2023-02-21T14:10:46.842Z,0.57
2023-02-21T14:13:28.602Z,0.30
2023-02-21T14:16:01.457Z,0.40
2023-02-21T14:18:39.835Z,0.40
2023-02-21T14:21:15.434Z,0.57
2023-02-21T14:23:51.348Z,0.30
2023-02-21T14:26:42.696Z,0.47
2023-02-21T14:29:32.123Z,0.32
2023-02-21T14:32:28.133Z,0.47
2023-02-21T14:35:00.776Z,0.22
2023-02-21T14:37:36.498Z,0.40
2023-02-21T14:40:31.411Z,0.38
2023-02-21T14:43:23.635Z,0.35
2023-02-21T14:46:24.701Z,0.30
2023-02-21T14:49:29.548Z,0.25
2023-02-21T14:52:27.504Z,0.80
2023-02-21T14:58:43.476Z,0.40
2023-02-21T15:01:34.870Z,0.50
2023-02-21T15:04:16.249Z,1.20
2023-02-21T15:07:00.249Z,2.13
2023-02-21T15:09:31.326Z,0.50
2023-02-21T15:12:00.373Z,0.30
2023-02-21T15:14:36.784Z,0.40
2023-02-21T15:17:17.906Z,0.30
2023-02-21T15:19:46.088Z,0.45
2023-02-21T15:22:19.524Z,0.30
2023-02-21T15:25:20.864Z,0.20
2023-02-21T15:28:02.377Z,0.40
2023-02-21T15:30:40.236Z,0.60
2023-02-21T15:33:17.409Z,0.73
2023-02-21T15:35:53.876Z,0.52
2023-02-21T15:38:30.570Z,0.80
2023-02-21T15:41:09.196Z,0.35
2023-02-21T15:43:51.364Z,1.58
2023-02-21T15:46:26.785Z,3.30
2023-02-21T15:49:00.962Z,0.95
2023-02-21T15:51:29.966Z,1.23
2023-02-21T15:54:28.205Z,0.50
2023-02-21T15:57:09.189Z,0.43
2023-02-21T15:59:38.507Z,0.80
2023-02-21T16:02:25.089Z,0.60
2023-02-21T16:04:54.423Z,0.68
2023-02-21T16:07:30.880Z,1.52
2023-02-21T16:10:04.056Z,0.82
2023-02-21T16:12:39.930Z,0.73
2023-02-21T16:15:23.547Z,0.43
2023-02-21T16:17:58.248Z,0.70
2023-02-21T16:20:32.901Z,0.75
2023-02-21T16:23:23.938Z,0.70
2023-02-21T16:26:06.879Z,0.80
2023-02-21T16:28:35.277Z,1.20
2023-02-21T16:31:06.707Z,1.48
2023-02-21T16:33:37.711Z,1.77
2023-02-21T16:36:10.492Z,1.38
2023-02-21T16:38:38.724Z,1.67
2023-02-21T16:41:06.915Z,1.15
2023-02-21T16:43:35.092Z,1.05
2023-02-21T16:46:03.486Z,1.00
2023-02-21T16:48:33.716Z,1.67
2023-02-21T16:51:06.350Z,1.00
2023-02-21T16:53:34.755Z,1.05
2023-02-21T16:56:04.037Z,0.70
2023-02-21T16:58:37.412Z,0.90
2023-02-21T17:01:09.318Z,1.05
2023-02-21T17:03:37.602Z,1.45
2023-02-21T17:06:07.980Z,1.70
2023-02-21T17:08:36.155Z,1.40
2023-02-21T17:11:04.562Z,1.95
2023-02-21T17:13:32.757Z,1.95
2023-02-21T17:16:00.876Z,1.75
2023-02-21T17:18:31.394Z,2.80
2023-02-21T17:20:59.803Z,2.20
2023-02-21T17:23:29.711Z,2.40
2023-02-21T17:25:58.128Z,2.30
2023-02-21T17:28:26.332Z,3.03
2023-02-21T17:30:54.597Z,6.18
2023-02-21T17:33:23.164Z,5.07
2023-02-21T17:35:53.489Z,4.30
2023-02-21T17:38:21.652Z,4.95
2023-02-21T17:40:52.897Z,5.82
2023-02-21T17:43:21.120Z,5.57
2023-02-21T17:45:49.296Z,5.03
2023-02-21T17:48:17.579Z,4.47
2023-02-21T17:50:45.810Z,6.15
2023-02-21T17:53:14.058Z,5.43
2023-02-21T17:55:42.336Z,5.45
2023-02-21T17:58:12.016Z,4.07
2023-02-21T18:00:42.926Z,5.95
2023-02-21T18:03:11.049Z,5.72
2023-02-21T18:05:39.708Z,3.55
2023-02-21T18:08:07.903Z,3.22
2023-02-21T18:10:36.617Z,3.28
2023-02-21T18:13:04.861Z,2.58
2023-02-21T18:15:34.446Z,3.33
2023-02-21T18:18:07.122Z,3.38
2023-02-21T18:20:36.373Z,5.22
2023-02-21T18:23:06.505Z,4.47
2023-02-21T18:25:35.461Z,5.70
2023-02-21T18:28:04.412Z,6.85
2023-02-21T18:30:34.145Z,8.85
2023-02-21T18:33:02.505Z,8.75
2023-02-21T18:35:30.609Z,8.38
2023-02-21T18:37:58.828Z,9.48
2023-02-21T18:40:34.299Z,12.02
2023-02-21T18:43:02.705Z,10.27
2023-02-21T18:49:44.119Z,11.68
2023-02-21T18:52:12.816Z,17.77
2023-02-21T18:54:45.643Z,18.60
2023-02-21T18:57:13.904Z,16.10
2023-02-21T18:59:42.778Z,10.15
2023-02-21T19:02:14.764Z,20.10
2023-02-21T19:04:45.192Z,10.48
2023-02-21T19:07:17.015Z,7.97
2023-02-21T19:09:50.153Z,10.98
2023-02-21T19:12:19.059Z,9.40
2023-02-21T19:14:47.206Z,8.98
2023-02-21T19:17:15.458Z,12.07
2023-02-21T19:19:45.040Z,11.80
2023-02-21T19:22:13.868Z,9.90
2023-02-21T19:24:42.091Z,11.60
2023-02-21T19:27:10.422Z,11.68
2023-02-21T19:29:38.670Z,13.60
2023-02-21T19:32:07.169Z,12.13
2023-02-21T19:34:35.502Z,11.83
2023-02-21T19:37:05.168Z,12.23
2023-02-21T19:39:33.471Z,12.73
2023-02-21T19:42:01.728Z,15.83
2023-02-21T19:44:30.706Z,14.43
2023-02-21T19:46:59.177Z,15.63
2023-02-21T19:49:27.776Z,14.77
2023-02-21T19:51:59.678Z,11.00
2023-02-21T19:54:29.990Z,12.37
2023-02-21T19:56:58.917Z,10.20
2023-02-21T19:59:29.312Z,9.20
2023-02-21T20:01:57.610Z,5.83
2023-02-21T20:04:28.641Z,5.45
2023-02-21T20:06:57.811Z,5.07
2023-02-21T20:09:26.260Z,5.50
2023-02-21T20:11:55.877Z,6.97
2023-02-21T20:14:24.165Z,7.03
2023-02-21T20:16:53.653Z,8.10
2023-02-21T20:19:23.015Z,24.60
2023-02-21T20:21:53.234Z,14.87
2023-02-21T20:24:22.109Z,46.23
2023-02-21T20:26:52.095Z,17.83
2023-02-21T20:29:23.540Z,12.80
2023-02-21T20:31:51.935Z,9.23
2023-02-21T20:34:20.271Z,45.80
2023-02-21T20:36:48.823Z,68.40
2023-02-21T20:39:25.739Z,40.93
2023-02-21T20:41:56.128Z,20.03
2023-02-21T20:44:27.444Z,14.13
2023-02-21T20:46:57.610Z,13.17
2023-02-21T20:49:25.859Z,11.83
2023-02-21T20:51:54.976Z,11.23
2023-02-21T20:54:24.058Z,10.97
2023-02-21T20:56:56.728Z,13.60
2023-02-21T20:59:29.823Z,13.23
2023-02-21T21:01:59.487Z,12.60
2023-02-21T21:04:31.552Z,12.33
2023-02-21T21:07:05.134Z,11.03
2023-02-21T21:09:35.030Z,12.77
2023-02-21T21:12:07.291Z,12.33
2023-02-21T21:14:41.520Z,12.90
2023-02-21T21:17:12.816Z,11.67
2023-02-21T21:19:43.782Z,12.27
2023-02-21T21:22:15.166Z,11.63
2023-02-21T21:24:44.097Z,10.67
2023-02-21T21:27:14.708Z,10.40
2023-02-21T21:29:46.802Z,10.70
2023-02-21T21:32:18.368Z,9.80
2023-02-21T21:34:48.667Z,9.47
2023-02-21T21:37:20.423Z,10.30
2023-02-21T21:39:54.428Z,9.30
2023-02-21T21:42:26.194Z,9.23
2023-02-21T21:44:58.113Z,8.20
2023-02-21T21:47:31.703Z,9.53
2023-02-21T21:50:02.299Z,10.87
2023-02-21T21:52:30.497Z,13.93
2023-02-21T21:54:59.765Z,10.93
2023-02-21T21:57:27.968Z,10.77
2023-02-21T21:59:57.567Z,10.70
2023-02-21T22:02:25.818Z,9.40
2023-02-21T22:04:54.177Z,13.17
2023-02-21T22:07:22.881Z,13.13
2023-02-21T22:09:51.066Z,11.33
2023-02-21T22:12:20.869Z,9.63
2023-02-21T22:14:49.927Z,8.20
2023-02-21T22:17:19.701Z,6.50
2023-02-21T22:19:47.814Z,6.00
2023-02-21T22:22:16.006Z,6.93
2023-02-21T22:24:44.175Z,7.23
2023-02-21T22:27:12.345Z,7.07
2023-02-21T22:29:40.569Z,5.57
2023-02-21T22:32:10.033Z,4.67
2023-02-21T22:34:39.617Z,4.03
2023-02-21T22:37:10.183Z,3.77
2023-02-21T22:39:39.342Z,4.60
2023-02-21T22:42:08.723Z,3.97
2023-02-21T22:44:37.600Z,3.50
2023-02-21T22:47:06.126Z,5.93
2023-02-21T22:49:34.323Z,5.90
2023-02-21T22:52:04.059Z,2.83
2023-02-21T22:54:32.255Z,2.63
2023-02-21T22:57:02.003Z,2.70
2023-02-21T22:59:30.319Z,2.80
2023-02-21T23:01:59.272Z,2.40
2023-02-21T23:04:27.630Z,2.93
2023-02-21T23:06:58.813Z,3.27
2023-02-21T23:09:36.803Z,4.30
2023-02-21T23:12:07.233Z,5.10
2023-02-21T23:14:35.678Z,4.27
2023-02-21T23:17:04.371Z,4.97
2023-02-21T23:19:32.587Z,3.90
2023-02-21T23:22:01.365Z,3.05
2023-02-21T23:24:30.965Z,3.63
2023-02-21T23:26:59.130Z,5.60
2023-02-21T23:29:27.702Z,6.33
2023-02-21T23:32:09.072Z,7.13
2023-02-21T23:34:41.186Z,7.33
2023-02-21T23:37:12.795Z,7.33
2023-02-21T23:39:46.655Z,7.97
2023-02-21T23:42:17.408Z,8.13
2023-02-21T23:44:45.806Z,8.63
2023-02-21T23:47:14.274Z,9.23
2023-02-21T23:49:44.093Z,8.67
2023-02-21T23:52:12.446Z,9.23
2023-02-21T23:54:42.981Z,8.30
2023-02-21T23:57:11.074Z,6.93
2023-02-21T23:59:39.245Z,6.37
